createdAt,value
2023-05-23T00:03:46.736Z,34.47
2023-05-23T00:08:48.769Z,35.03
2023-05-23T00:13:50.640Z,33.13
2023-05-23T00:18:52.943Z,30.30
2023-05-23T00:23:54.188Z,33.90
2023-05-23T00:28:55.802Z,34.07
2023-05-23T00:33:57.133Z,37.13
2023-05-23T00:38:58.531Z,35.93
2023-05-23T00:44:00.092Z,36.33
2023-05-23T00:49:01.902Z,35.90
2023-05-23T00:54:05.040Z,36.67
2023-05-23T00:59:07.316Z,35.03
2023-05-23T01:04:09.038Z,31.97
2023-05-23T01:09:10.570Z,33.33
2023-05-23T01:14:17.478Z,30.90
2023-05-23T01:19:57.849Z,33.50
2023-05-23T01:25:10.421Z,32.13
2023-05-23T01:30:13.322Z,33.40
2023-05-23T01:35:21.721Z,34.17
2023-05-23T01:40:24.138Z,32.53
2023-05-23T01:45:27.220Z,34.43
2023-05-23T01:50:31.531Z,34.37
2023-05-23T01:55:34.069Z,34.50
2023-05-23T02:00:35.457Z,33.67
2023-05-23T02:05:37.707Z,32.53
2023-05-23T02:10:39.083Z,31.10
2023-05-23T02:15:40.743Z,32.07
2023-05-23T02:20:43.134Z,29.47
2023-05-23T02:25:44.426Z,29.60
2023-05-23T02:30:45.922Z,29.43
2023-05-23T02:35:49.329Z,30.40
2023-05-23T02:40:52.735Z,32.33
2023-05-23T02:45:54.208Z,30.10
2023-05-23T02:50:56.352Z,27.27
2023-05-23T02:55:57.931Z,26.47
2023-05-23T03:00:59.337Z,27.57
2023-05-23T03:06:02.727Z,26.70
2023-05-23T03:11:03.991Z,24.30
2023-05-23T03:16:05.604Z,24.07
2023-05-23T03:21:07.725Z,24.87
2023-05-23T03:26:08.935Z,26.80
2023-05-23T03:31:10.127Z,27.27
2023-05-23T03:36:12.115Z,26.40
2023-05-23T03:41:13.442Z,20.37
2023-05-23T03:46:15.123Z,21.33
2023-05-23T03:51:16.947Z,21.70
2023-05-23T03:56:18.385Z,20.87
2023-05-23T04:01:20.111Z,20.23
2023-05-23T04:06:22.756Z,22.93
2023-05-23T04:11:24.329Z,20.80
2023-05-23T04:16:25.742Z,16.53
2023-05-23T04:21:27.713Z,17.17
2023-05-23T04:26:38.849Z,16.13
2023-05-23T04:31:40.696Z,14.17
2023-05-23T04:36:43.999Z,15.80
2023-05-23T04:41:46.051Z,14.60
2023-05-23T04:46:56.033Z,14.50
2023-05-23T04:52:07.504Z,13.60
2023-05-23T04:57:13.044Z,11.87
2023-05-23T05:02:14.302Z,12.23
2023-05-23T05:07:16.195Z,12.67
2023-05-23T05:12:18.056Z,12.33
2023-05-23T05:17:19.452Z,12.90
2023-05-23T05:22:43.080Z,13.47
2023-05-23T05:27:46.725Z,17.37
2023-05-23T05:32:52.223Z,16.03
2023-05-23T05:37:53.644Z,14.47
2023-05-23T05:42:54.998Z,15.97
2023-05-23T05:47:58.213Z,14.63
2023-05-23T05:53:01.551Z,14.57
2023-05-23T05:58:03.721Z,15.10
2023-05-23T06:03:15.074Z,15.53
2023-05-23T06:08:28.560Z,15.53
2023-05-23T06:13:30.487Z,15.27
2023-05-23T06:18:32.330Z,17.73
2023-05-23T06:23:33.750Z,18.13
2023-05-23T06:28:35.182Z,17.93
2023-05-23T06:33:36.652Z,14.87
2023-05-23T06:38:38.024Z,15.10
2023-05-23T06:43:40.749Z,11.87
2023-05-23T06:48:50.715Z,10.17
2023-05-23T06:53:56.114Z,10.93
2023-05-23T06:58:57.497Z,9.40
2023-05-23T07:03:59.413Z,9.33
2023-05-23T07:09:01.101Z,9.13
2023-05-23T07:14:03.141Z,8.18
2023-05-23T07:19:11.957Z,7.90
2023-05-23T07:24:20.010Z,7.45
2023-05-23T07:29:22.443Z,7.70
2023-05-23T07:34:27.487Z,7.43
2023-05-23T07:39:31.843Z,6.47
2023-05-23T07:44:35.453Z,6.25
2023-05-23T07:49:37.859Z,5.57
2023-05-23T07:54:40.052Z,5.15
2023-05-23T07:59:42.650Z,5.80
2023-05-23T08:04:45.265Z,6.30
2023-05-23T08:09:47.209Z,6.43
2023-05-23T08:14:52.851Z,5.82
2023-05-23T08:20:00.732Z,6.50
2023-05-23T08:25:04.275Z,6.07
2023-05-23T08:30:09.205Z,6.45
2023-05-23T08:35:11.413Z,8.05
2023-05-23T08:40:20.529Z,6.85
2023-05-23T08:45:30.540Z,6.85
2023-05-23T08:50:32.809Z,6.78
2023-05-23T08:55:34.530Z,6.10
2023-05-23T09:00:37.855Z,5.72
2023-05-23T09:05:41.398Z,6.70
2023-05-23T09:10:43.738Z,5.60
2023-05-23T09:15:59.548Z,5.55
2023-05-23T09:21:03.899Z,5.60
2023-05-23T09:26:12.676Z,4.57
2023-05-23T09:31:15.614Z,4.60
2023-05-23T09:36:18.328Z,4.75
2023-05-23T09:41:20.917Z,5.85
2023-05-23T09:46:22.642Z,5.40
2023-05-23T09:51:24.049Z,6.65
2023-05-23T09:56:28.097Z,23.83
2023-05-23T10:01:31.472Z,4.93
2023-05-23T10:06:44.168Z,5.13
2023-05-23T10:12:26.720Z,3.58
2023-05-23T10:18:01.989Z,3.42
2023-05-23T10:23:04.700Z,3.78
2023-05-23T10:28:06.316Z,3.22
2023-05-23T10:33:08.571Z,3.55
2023-05-23T10:38:16.201Z,3.55
2023-05-23T10:44:07.273Z,3.00
2023-05-23T10:49:10.766Z,2.88
2023-05-23T10:54:12.292Z,3.38
2023-05-23T10:59:23.801Z,4.10
2023-05-23T11:04:26.862Z,2.90
2023-05-23T11:09:28.249Z,2.90
2023-05-23T11:14:32.878Z,6.30
2023-05-23T11:19:49.501Z,3.15
2023-05-23T11:31:08.389Z,2.50
2023-05-23T11:36:10.578Z,3.22
2023-05-23T11:41:11.808Z,2.90
2023-05-23T11:46:13.279Z,3.03
2023-05-23T11:51:15.122Z,2.90
2023-05-23T11:56:17.153Z,3.58
2023-05-23T12:01:18.515Z,2.80
2023-05-23T12:06:21.223Z,2.90
2023-05-23T12:11:24.488Z,2.83
2023-05-23T12:16:28.964Z,3.00
2023-05-23T12:21:41.591Z,3.45
2023-05-23T12:26:54.433Z,3.40
2023-05-23T12:31:58.083Z,3.50
2023-05-23T12:37:18.220Z,3.75
2023-05-23T12:42:20.751Z,3.58
2023-05-23T12:47:22.526Z,3.13
2023-05-23T12:52:23.982Z,3.92
2023-05-23T12:57:26.344Z,2.92
2023-05-23T13:02:27.797Z,3.13
2023-05-23T13:07:29.241Z,3.17
2023-05-23T13:12:30.539Z,3.88
2023-05-23T13:17:32.387Z,4.47
2023-05-23T13:22:33.882Z,3.47
2023-05-23T13:27:35.045Z,3.28
2023-05-23T13:32:36.223Z,3.90
2023-05-23T13:37:38.267Z,4.00
2023-05-23T13:42:39.808Z,4.03
2023-05-23T13:47:41.166Z,3.83
2023-05-23T13:52:45.634Z,4.35
2023-05-23T13:57:48.827Z,3.80
2023-05-23T14:02:50.547Z,3.17
2023-05-23T14:07:52.538Z,3.72
2023-05-23T14:12:53.822Z,3.35
2023-05-23T14:17:56.390Z,3.20
2023-05-23T14:22:57.769Z,3.40
2023-05-23T14:27:59.147Z,3.00
2023-05-23T14:33:00.629Z,2.92
2023-05-23T14:38:01.974Z,3.20
2023-05-23T14:43:03.208Z,2.95
2023-05-23T14:48:05.373Z,3.22
2023-05-23T14:53:06.690Z,3.25
2023-05-23T14:58:08.101Z,2.83
2023-05-23T15:03:09.846Z,3.30
2023-05-23T15:08:11.470Z,3.20
2023-05-23T15:13:12.686Z,3.35
2023-05-23T15:18:24.523Z,2.75
2023-05-23T15:23:33.228Z,3.13
2023-05-23T15:34:19.412Z,2.65
2023-05-23T15:39:21.469Z,2.92
2023-05-23T15:44:22.799Z,2.47
2023-05-23T15:49:26.893Z,3.00
2023-05-23T15:54:28.712Z,2.65
2023-05-23T15:59:32.975Z,3.03
2023-05-23T16:04:35.618Z,3.20
2023-05-23T16:09:36.979Z,3.13
2023-05-23T16:14:38.201Z,3.63
2023-05-23T16:19:39.445Z,3.17
2023-05-23T16:24:41.014Z,3.30
2023-05-23T16:29:42.342Z,2.78
2023-05-23T16:34:46.925Z,3.08
2023-05-23T16:39:51.133Z,2.40
2023-05-23T16:44:52.692Z,2.95
2023-05-23T16:49:54.018Z,3.25
2023-05-23T16:54:55.219Z,3.72
2023-05-23T16:59:56.706Z,3.00
2023-05-23T17:04:59.214Z,3.45
2023-05-23T17:10:00.759Z,2.97
2023-05-23T17:15:03.293Z,2.83
2023-05-23T17:20:05.437Z,3.03
2023-05-23T17:25:07.390Z,2.80
2023-05-23T17:30:09.571Z,2.47
2023-05-23T17:35:11.425Z,2.60
2023-05-23T17:40:13.296Z,2.95
2023-05-23T17:45:14.678Z,2.40
2023-05-23T17:50:16.105Z,2.38
2023-05-23T17:55:17.739Z,2.85
2023-05-23T18:00:19.818Z,2.90
2023-05-23T18:05:22.982Z,2.83
2023-05-23T18:10:24.308Z,3.30
2023-05-23T18:15:25.846Z,3.03
2023-05-23T18:20:27.242Z,2.55
2023-05-23T18:25:28.697Z,2.85
2023-05-23T18:30:30.185Z,2.90
2023-05-23T18:35:31.684Z,2.88
2023-05-23T18:40:32.874Z,3.42
2023-05-23T18:45:34.185Z,2.70
2023-05-23T18:50:35.510Z,3.63
2023-05-23T18:55:37.013Z,2.63
2023-05-23T19:00:38.448Z,2.60
2023-05-23T19:05:40.478Z,2.77
2023-05-23T19:10:42.076Z,2.43
2023-05-23T19:15:45.078Z,3.17
2023-05-23T19:20:50.995Z,2.80
2023-05-23T19:25:52.425Z,3.07
2023-05-23T19:30:53.665Z,3.20
2023-05-23T19:35:55.037Z,3.00
2023-05-23T19:40:56.437Z,2.70
2023-05-23T19:45:57.881Z,3.60
2023-05-23T19:50:59.325Z,2.80
2023-05-23T19:56:02.850Z,2.57
2023-05-23T20:01:04.309Z,2.30
2023-05-23T20:06:06.104Z,2.60
2023-05-23T20:11:07.638Z,2.93
2023-05-23T20:16:09.090Z,4.10
2023-05-23T20:21:10.926Z,2.40
2023-05-23T20:26:12.273Z,2.70
2023-05-23T20:31:15.241Z,2.67
2023-05-23T20:36:19.215Z,3.03
2023-05-23T20:41:21.130Z,2.20
2023-05-23T20:46:22.778Z,2.60
2023-05-23T20:51:24.087Z,2.70
2023-05-23T20:56:26.475Z,2.80
2023-05-23T21:01:27.947Z,2.90
2023-05-23T21:06:29.588Z,2.27
2023-05-23T21:11:30.884Z,2.50
2023-05-23T21:16:33.382Z,2.70
2023-05-23T21:21:35.250Z,2.70
2023-05-23T21:26:36.561Z,3.03
2023-05-23T21:31:41.746Z,3.37
2023-05-23T21:36:43.557Z,2.80
2023-05-23T21:41:44.926Z,2.67
2023-05-23T21:46:46.491Z,2.80
2023-05-23T21:51:47.890Z,3.13
2023-05-23T21:56:49.354Z,2.73
2023-05-23T22:01:50.966Z,2.40
2023-05-23T22:06:52.348Z,2.70
2023-05-23T22:11:53.606Z,3.00
2023-05-23T22:16:55.471Z,3.07
2023-05-23T22:21:56.879Z,2.90
2023-05-23T22:27:00.014Z,3.27
2023-05-23T22:32:01.472Z,2.60
2023-05-23T22:37:03.192Z,2.23
2023-05-23T22:42:04.915Z,2.33
2023-05-23T22:47:06.400Z,3.10
2023-05-23T22:52:07.875Z,2.60
2023-05-23T22:57:09.323Z,2.63
2023-05-23T23:02:10.744Z,2.23
2023-05-23T23:07:12.393Z,2.70
2023-05-23T23:12:13.572Z,2.27
2023-05-23T23:17:14.893Z,2.37
2023-05-23T23:22:17.857Z,2.53
2023-05-23T23:27:19.856Z,3.20
2023-05-23T23:32:21.217Z,3.07
2023-05-23T23:37:22.521Z,2.93
2023-05-23T23:42:23.692Z,3.70
2023-05-23T23:47:24.976Z,3.10
2023-05-23T23:52:27.293Z,3.20
2023-05-23T23:57:28.754Z,2.90
